sensor_id;sensor_type;location;lat;lon;timestamp;P1;durP1;ratioP1;P2;durP2;ratioP2
76194;SDS011;64964;48.694;21.206;2023-03-03T00:00:37;18.50;;;8.97;;
76194;SDS011;64964;48.694;21.206;2023-03-03T00:03:03;18.37;;;8.23;;
76194;SDS011;64964;48.694;21.206;2023-03-03T00:05:32;19.45;;;8.73;;
76194;SDS011;64964;48.694;21.206;2023-03-03T00:07:58;18.80;;;8.70;;
76194;SDS011;64964;48.694;21.206;2023-03-03T00:10:23;17.47;;;8.27;;
76194;SDS011;64964;48.694;21.206;2023-03-03T00:12:49;20.10;;;8.37;;
76194;SDS011;64964;48.694;21.206;2023-03-03T00:15:16;22.45;;;9.32;;
76194;SDS011;64964;48.694;21.206;2023-03-03T00:17:43;18.07;;;8.47;;
76194;SDS011;64964;48.694;21.206;2023-03-03T00:22:55;18.35;;;8.93;;
76194;SDS011;64964;48.694;21.206;2023-03-03T00:27:59;17.80;;;8.48;;
76194;SDS011;64964;48.694;21.206;2023-03-03T00:30:31;18.42;;;8.38;;
76194;SDS011;64964;48.694;21.206;2023-03-03T00:32:56;17.47;;;7.77;;
76194;SDS011;64964;48.694;21.206;2023-03-03T00:35:23;17.03;;;7.73;;
76194;SDS011;64964;48.694;21.206;2023-03-03T00:37:53;18.55;;;7.90;;
76194;SDS011;64964;48.694;21.206;2023-03-03T00:40:34;19.30;;;8.05;;
76194;SDS011;64964;48.694;21.206;2023-03-03T00:43:01;16.05;;;7.53;;
76194;SDS011;64964;48.694;21.206;2023-03-03T00:45:47;20.58;;;8.55;;
76194;SDS011;64964;48.694;21.206;2023-03-03T00:48:22;17.60;;;7.70;;
76194;SDS011;64964;48.694;21.206;2023-03-03T00:50:48;17.52;;;7.57;;
76194;SDS011;64964;48.694;21.206;2023-03-03T00:53:15;18.67;;;7.93;;
76194;SDS011;64964;48.694;21.206;2023-03-03T00:55:43;17.13;;;7.55;;
76194;SDS011;64964;48.694;21.206;2023-03-03T00:58:10;13.80;;;7.00;;
76194;SDS011;64964;48.694;21.206;2023-03-03T01:00:36;16.07;;;7.20;;
76194;SDS011;64964;48.694;21.206;2023-03-03T01:03:04;17.17;;;7.78;;
76194;SDS011;64964;48.694;21.206;2023-03-03T01:05:31;18.88;;;7.90;;
76194;SDS011;64964;48.694;21.206;2023-03-03T01:07:56;15.25;;;7.05;;
76194;SDS011;64964;48.694;21.206;2023-03-03T01:10:22;15.03;;;6.40;;
76194;SDS011;64964;48.694;21.206;2023-03-03T01:12:48;16.67;;;7.43;;
76194;SDS011;64964;48.694;21.206;2023-03-03T01:15:14;17.37;;;7.17;;
76194;SDS011;64964;48.694;21.206;2023-03-03T01:17:40;17.13;;;6.63;;
76194;SDS011;64964;48.694;21.206;2023-03-03T01:20:07;16.47;;;6.90;;
76194;SDS011;64964;48.694;21.206;2023-03-03T01:22:34;19.02;;;7.47;;
76194;SDS011;64964;48.694;21.206;2023-03-03T01:24:59;16.70;;;7.53;;
76194;SDS011;64964;48.694;21.206;2023-03-03T01:27:27;14.75;;;7.00;;
76194;SDS011;64964;48.694;21.206;2023-03-03T01:29:53;15.55;;;7.50;;
76194;SDS011;64964;48.694;21.206;2023-03-03T01:32:20;18.35;;;7.45;;
76194;SDS011;64964;48.694;21.206;2023-03-03T01:34:45;13.63;;;7.13;;
76194;SDS011;64964;48.694;21.206;2023-03-03T01:37:11;18.90;;;7.43;;
76194;SDS011;64964;48.694;21.206;2023-03-03T01:39:36;17.87;;;7.60;;
76194;SDS011;64964;48.694;21.206;2023-03-03T01:42:02;16.95;;;7.32;;
76194;SDS011;64964;48.694;21.206;2023-03-03T01:44:28;14.60;;;6.80;;
76194;SDS011;64964;48.694;21.206;2023-03-03T01:46:54;15.02;;;6.38;;
76194;SDS011;64964;48.694;21.206;2023-03-03T01:52:30;18.02;;;6.72;;
76194;SDS011;64964;48.694;21.206;2023-03-03T01:55:03;13.00;;;6.15;;
76194;SDS011;64964;48.694;21.206;2023-03-03T01:57:43;12.93;;;6.38;;
76194;SDS011;64964;48.694;21.206;2023-03-03T02:00:12;12.68;;;6.05;;
76194;SDS011;64964;48.694;21.206;2023-03-03T02:02:39;14.53;;;6.17;;
76194;SDS011;64964;48.694;21.206;2023-03-03T02:05:06;16.95;;;6.28;;
76194;SDS011;64964;48.694;21.206;2023-03-03T02:07:32;18.40;;;6.70;;
76194;SDS011;64964;48.694;21.206;2023-03-03T02:13:10;16.23;;;6.47;;
76194;SDS011;64964;48.694;21.206;2023-03-03T02:17:45;16.30;;;6.63;;
76194;SDS011;64964;48.694;21.206;2023-03-03T02:20:33;15.05;;;5.97;;
76194;SDS011;64964;48.694;21.206;2023-03-03T02:23:17;13.75;;;5.78;;
76194;SDS011;64964;48.694;21.206;2023-03-03T02:28:26;10.75;;;4.50;;
76194;SDS011;64964;48.694;21.206;2023-03-03T02:30:56;11.45;;;5.18;;
76194;SDS011;64964;48.694;21.206;2023-03-03T02:33:23;10.18;;;4.55;;
76194;SDS011;64964;48.694;21.206;2023-03-03T02:35:49;10.27;;;4.53;;
76194;SDS011;64964;48.694;21.206;2023-03-03T02:41:23;9.35;;;4.22;;
76194;SDS011;64964;48.694;21.206;2023-03-03T02:43:54;10.20;;;4.82;;
76194;SDS011;64964;48.694;21.206;2023-03-03T02:46:26;11.55;;;4.75;;
76194;SDS011;64964;48.694;21.206;2023-03-03T02:48:56;13.27;;;4.72;;
76194;SDS011;64964;48.694;21.206;2023-03-03T02:51:21;13.57;;;6.10;;
76194;SDS011;64964;48.694;21.206;2023-03-03T02:53:46;14.17;;;5.87;;
76194;SDS011;64964;48.694;21.206;2023-03-03T02:56:12;12.60;;;5.63;;
76194;SDS011;64964;48.694;21.206;2023-03-03T02:58:37;17.30;;;6.67;;
76194;SDS011;64964;48.694;21.206;2023-03-03T03:01:03;18.33;;;7.20;;
76194;SDS011;64964;48.694;21.206;2023-03-03T03:03:28;16.43;;;6.93;;
76194;SDS011;64964;48.694;21.206;2023-03-03T03:05:54;20.77;;;7.80;;
76194;SDS011;64964;48.694;21.206;2023-03-03T03:08:19;16.67;;;6.50;;
76194;SDS011;64964;48.694;21.206;2023-03-03T03:10:44;18.00;;;6.50;;
76194;SDS011;64964;48.694;21.206;2023-03-03T03:13:10;12.67;;;6.13;;
76194;SDS011;64964;48.694;21.206;2023-03-03T03:15:36;14.77;;;5.53;;
76194;SDS011;64964;48.694;21.206;2023-03-03T03:18:01;13.03;;;6.00;;
76194;SDS011;64964;48.694;21.206;2023-03-03T03:20:27;12.98;;;5.55;;
76194;SDS011;64964;48.694;21.206;2023-03-03T03:22:52;10.67;;;4.67;;
76194;SDS011;64964;48.694;21.206;2023-03-03T03:25:18;10.03;;;4.47;;
76194;SDS011;64964;48.694;21.206;2023-03-03T03:27:43;9.93;;;4.70;;
76194;SDS011;64964;48.694;21.206;2023-03-03T03:30:08;11.70;;;4.60;;
76194;SDS011;64964;48.694;21.206;2023-03-03T03:32:34;10.60;;;4.97;;
76194;SDS011;64964;48.694;21.206;2023-03-03T03:35:00;12.40;;;5.10;;
76194;SDS011;64964;48.694;21.206;2023-03-03T03:37:25;15.43;;;4.67;;
76194;SDS011;64964;48.694;21.206;2023-03-03T03:39:50;10.33;;;4.97;;
76194;SDS011;64964;48.694;21.206;2023-03-03T03:42:16;11.13;;;4.87;;
76194;SDS011;64964;48.694;21.206;2023-03-03T03:44:41;12.87;;;5.03;;
76194;SDS011;64964;48.694;21.206;2023-03-03T03:47:07;9.75;;;5.13;;
76194;SDS011;64964;48.694;21.206;2023-03-03T03:49:32;10.60;;;4.63;;
76194;SDS011;64964;48.694;21.206;2023-03-03T03:51:57;13.13;;;4.87;;
76194;SDS011;64964;48.694;21.206;2023-03-03T03:54:23;10.27;;;4.60;;
76194;SDS011;64964;48.694;21.206;2023-03-03T03:56:48;10.43;;;5.00;;
76194;SDS011;64964;48.694;21.206;2023-03-03T03:59:13;10.93;;;4.93;;
76194;SDS011;64964;48.694;21.206;2023-03-03T04:01:39;9.47;;;4.93;;
76194;SDS011;64964;48.694;21.206;2023-03-03T04:04:04;11.87;;;4.93;;
76194;SDS011;64964;48.694;21.206;2023-03-03T04:06:30;9.27;;;4.50;;
76194;SDS011;64964;48.694;21.206;2023-03-03T04:08:56;10.93;;;4.60;;
76194;SDS011;64964;48.694;21.206;2023-03-03T04:11:21;11.63;;;5.17;;
76194;SDS011;64964;48.694;21.206;2023-03-03T04:13:47;9.87;;;4.27;;
76194;SDS011;64964;48.694;21.206;2023-03-03T04:16:12;11.93;;;4.60;;
76194;SDS011;64964;48.694;21.206;2023-03-03T04:18:37;8.47;;;4.60;;
76194;SDS011;64964;48.694;21.206;2023-03-03T04:21:03;9.13;;;4.57;;
76194;SDS011;64964;48.694;21.206;2023-03-03T04:23:28;9.50;;;4.67;;
76194;SDS011;64964;48.694;21.206;2023-03-03T04:25:54;11.60;;;5.07;;
76194;SDS011;64964;48.694;21.206;2023-03-03T04:28:19;11.80;;;5.07;;
76194;SDS011;64964;48.694;21.206;2023-03-03T04:30:45;9.33;;;5.00;;
76194;SDS011;64964;48.694;21.206;2023-03-03T04:33:11;9.75;;;4.93;;
76194;SDS011;64964;48.694;21.206;2023-03-03T04:35:36;11.57;;;5.10;;
76194;SDS011;64964;48.694;21.206;2023-03-03T04:38:02;9.87;;;4.67;;
76194;SDS011;64964;48.694;21.206;2023-03-03T04:40:27;10.30;;;4.80;;
76194;SDS011;64964;48.694;21.206;2023-03-03T04:42:52;8.60;;;4.53;;
76194;SDS011;64964;48.694;21.206;2023-03-03T04:45:18;10.30;;;4.40;;
76194;SDS011;64964;48.694;21.206;2023-03-03T04:47:43;11.27;;;4.67;;
76194;SDS011;64964;48.694;21.206;2023-03-03T04:50:09;8.03;;;4.63;;
76194;SDS011;64964;48.694;21.206;2023-03-03T04:52:35;11.52;;;5.03;;
76194;SDS011;64964;48.694;21.206;2023-03-03T04:55:01;12.75;;;5.20;;
76194;SDS011;64964;48.694;21.206;2023-03-03T04:57:26;11.30;;;4.90;;
76194;SDS011;64964;48.694;21.206;2023-03-03T04:59:51;10.83;;;5.07;;
76194;SDS011;64964;48.694;21.206;2023-03-03T05:02:17;10.97;;;5.30;;
76194;SDS011;64964;48.694;21.206;2023-03-03T05:04:43;11.02;;;5.25;;
76194;SDS011;64964;48.694;21.206;2023-03-03T05:07:09;10.63;;;4.50;;
76194;SDS011;64964;48.694;21.206;2023-03-03T05:09:34;11.90;;;5.20;;
76194;SDS011;64964;48.694;21.206;2023-03-03T05:11:59;11.93;;;5.10;;
76194;SDS011;64964;48.694;21.206;2023-03-03T05:14:25;11.00;;;4.63;;
76194;SDS011;64964;48.694;21.206;2023-03-03T05:16:51;11.80;;;5.10;;
76194;SDS011;64964;48.694;21.206;2023-03-03T05:19:16;9.13;;;4.60;;
76194;SDS011;64964;48.694;21.206;2023-03-03T05:21:42;11.83;;;5.37;;
76194;SDS011;64964;48.694;21.206;2023-03-03T05:24:11;10.93;;;5.17;;
76194;SDS011;64964;48.694;21.206;2023-03-03T05:26:37;13.43;;;5.22;;
76194;SDS011;64964;48.694;21.206;2023-03-03T05:29:03;9.13;;;4.47;;
76194;SDS011;64964;48.694;21.206;2023-03-03T05:31:28;11.20;;;5.17;;
76194;SDS011;64964;48.694;21.206;2023-03-03T05:33:54;10.38;;;5.07;;
76194;SDS011;64964;48.694;21.206;2023-03-03T05:36:19;12.17;;;5.00;;
76194;SDS011;64964;48.694;21.206;2023-03-03T05:38:45;11.97;;;4.93;;
76194;SDS011;64964;48.694;21.206;2023-03-03T05:41:10;11.20;;;5.13;;
76194;SDS011;64964;48.694;21.206;2023-03-03T05:43:36;13.93;;;5.93;;
76194;SDS011;64964;48.694;21.206;2023-03-03T05:46:02;12.87;;;6.10;;
76194;SDS011;64964;48.694;21.206;2023-03-03T05:48:28;14.80;;;6.63;;
76194;SDS011;64964;48.694;21.206;2023-03-03T05:50:56;13.10;;;6.10;;
76194;SDS011;64964;48.694;21.206;2023-03-03T05:53:28;13.35;;;5.00;;
76194;SDS011;64964;48.694;21.206;2023-03-03T05:55:54;10.20;;;5.33;;
76194;SDS011;64964;48.694;21.206;2023-03-03T05:58:19;12.38;;;5.57;;
76194;SDS011;64964;48.694;21.206;2023-03-03T06:00:45;13.20;;;5.53;;
76194;SDS011;64964;48.694;21.206;2023-03-03T06:03:10;12.33;;;5.13;;
76194;SDS011;64964;48.694;21.206;2023-03-03T06:05:36;13.87;;;5.03;;
76194;SDS011;64964;48.694;21.206;2023-03-03T06:08:02;10.15;;;5.15;;
76194;SDS011;64964;48.694;21.206;2023-03-03T06:10:28;12.73;;;5.43;;
76194;SDS011;64964;48.694;21.206;2023-03-03T06:12:53;12.10;;;4.95;;
76194;SDS011;64964;48.694;21.206;2023-03-03T06:15:19;11.37;;;4.73;;
76194;SDS011;64964;48.694;21.206;2023-03-03T06:17:46;13.25;;;5.15;;
76194;SDS011;64964;48.694;21.206;2023-03-03T06:20:11;12.23;;;5.73;;
76194;SDS011;64964;48.694;21.206;2023-03-03T06:22:36;11.77;;;5.40;;
76194;SDS011;64964;48.694;21.206;2023-03-03T06:25:02;10.40;;;5.15;;
76194;SDS011;64964;48.694;21.206;2023-03-03T06:27:28;11.70;;;5.80;;
76194;SDS011;64964;48.694;21.206;2023-03-03T06:29:53;11.67;;;5.67;;
76194;SDS011;64964;48.694;21.206;2023-03-03T06:32:18;14.07;;;5.40;;
76194;SDS011;64964;48.694;21.206;2023-03-03T06:34:44;11.85;;;5.72;;
76194;SDS011;64964;48.694;21.206;2023-03-03T06:37:10;15.40;;;5.23;;
76194;SDS011;64964;48.694;21.206;2023-03-03T06:39:35;14.38;;;5.63;;
76194;SDS011;64964;48.694;21.206;2023-03-03T06:42:01;10.53;;;5.23;;
76194;SDS011;64964;48.694;21.206;2023-03-03T06:44:26;11.93;;;5.50;;
76194;SDS011;64964;48.694;21.206;2023-03-03T06:46:51;13.63;;;5.47;;
76194;SDS011;64964;48.694;21.206;2023-03-03T06:49:17;15.02;;;5.35;;
76194;SDS011;64964;48.694;21.206;2023-03-03T06:51:43;11.60;;;5.53;;
76194;SDS011;64964;48.694;21.206;2023-03-03T06:56:35;13.90;;;5.70;;
76194;SDS011;64964;48.694;21.206;2023-03-03T06:59:04;13.75;;;5.78;;
76194;SDS011;64964;48.694;21.206;2023-03-03T07:01:35;11.80;;;5.65;;
76194;SDS011;64964;48.694;21.206;2023-03-03T07:04:06;12.13;;;5.60;;
76194;SDS011;64964;48.694;21.206;2023-03-03T07:06:37;11.98;;;5.97;;
76194;SDS011;64964;48.694;21.206;2023-03-03T07:09:04;13.97;;;6.10;;
76194;SDS011;64964;48.694;21.206;2023-03-03T07:11:35;13.02;;;5.45;;
76194;SDS011;64964;48.694;21.206;2023-03-03T07:14:04;13.45;;;5.72;;
76194;SDS011;64964;48.694;21.206;2023-03-03T07:16:40;13.65;;;5.88;;
76194;SDS011;64964;48.694;21.206;2023-03-03T07:19:08;12.67;;;6.00;;
76194;SDS011;64964;48.694;21.206;2023-03-03T07:21:41;12.15;;;5.93;;
76194;SDS011;64964;48.694;21.206;2023-03-03T07:26:53;13.85;;;6.70;;
76194;SDS011;64964;48.694;21.206;2023-03-03T07:29:35;13.82;;;7.50;;
76194;SDS011;64964;48.694;21.206;2023-03-03T07:32:05;21.48;;;10.15;;
76194;SDS011;64964;48.694;21.206;2023-03-03T07:34:48;23.07;;;10.40;;
76194;SDS011;64964;48.694;21.206;2023-03-03T07:37:16;19.98;;;9.95;;
76194;SDS011;64964;48.694;21.206;2023-03-03T07:39:50;16.38;;;9.23;;
76194;SDS011;64964;48.694;21.206;2023-03-03T07:44:45;14.25;;;7.78;;
76194;SDS011;64964;48.694;21.206;2023-03-03T07:49:48;15.40;;;8.63;;
76194;SDS011;64964;48.694;21.206;2023-03-03T07:52:26;12.98;;;8.15;;
76194;SDS011;64964;48.694;21.206;2023-03-03T08:03:41;16.27;;;9.83;;
76194;SDS011;64964;48.694;21.206;2023-03-03T08:06:57;14.85;;;9.73;;
76194;SDS011;64964;48.694;21.206;2023-03-03T08:11:34;17.63;;;9.85;;
76194;SDS011;64964;48.694;21.206;2023-03-03T08:14:04;15.82;;;10.20;;
76194;SDS011;64964;48.694;21.206;2023-03-03T08:16:37;17.10;;;10.80;;
76194;SDS011;64964;48.694;21.206;2023-03-03T08:19:04;20.10;;;10.90;;
76194;SDS011;64964;48.694;21.206;2023-03-03T08:21:30;18.07;;;11.13;;
76194;SDS011;64964;48.694;21.206;2023-03-03T08:23:59;16.77;;;11.00;;
76194;SDS011;64964;48.694;21.206;2023-03-03T08:26:25;20.27;;;10.88;;
76194;SDS011;64964;48.694;21.206;2023-03-03T08:28:51;16.93;;;10.87;;
76194;SDS011;64964;48.694;21.206;2023-03-03T08:31:17;18.03;;;11.03;;
76194;SDS011;64964;48.694;21.206;2023-03-03T08:33:43;18.17;;;11.45;;
76194;SDS011;64964;48.694;21.206;2023-03-03T08:36:09;22.77;;;13.88;;
76194;SDS011;64964;48.694;21.206;2023-03-03T08:38:35;20.58;;;12.80;;
76194;SDS011;64964;48.694;21.206;2023-03-03T08:41:02;17.55;;;11.82;;
76194;SDS011;64964;48.694;21.206;2023-03-03T08:43:28;18.55;;;11.50;;
76194;SDS011;64964;48.694;21.206;2023-03-03T08:45:55;17.83;;;11.63;;
76194;SDS011;64964;48.694;21.206;2023-03-03T08:48:23;16.88;;;11.80;;
76194;SDS011;64964;48.694;21.206;2023-03-03T08:50:49;20.70;;;12.63;;
76194;SDS011;64964;48.694;21.206;2023-03-03T08:53:15;21.27;;;12.43;;
76194;SDS011;64964;48.694;21.206;2023-03-03T08:55:42;18.92;;;11.95;;
76194;SDS011;64964;48.694;21.206;2023-03-03T08:58:08;17.95;;;12.05;;
76194;SDS011;64964;48.694;21.206;2023-03-03T09:00:33;19.53;;;12.33;;
76194;SDS011;64964;48.694;21.206;2023-03-03T09:02:59;20.20;;;12.57;;
76194;SDS011;64964;48.694;21.206;2023-03-03T09:05:25;23.57;;;13.70;;
76194;SDS011;64964;48.694;21.206;2023-03-03T09:07:52;21.30;;;13.25;;
76194;SDS011;64964;48.694;21.206;2023-03-03T09:10:20;21.75;;;12.60;;
76194;SDS011;64964;48.694;21.206;2023-03-03T09:12:51;19.38;;;12.50;;
76194;SDS011;64964;48.694;21.206;2023-03-03T09:17:43;18.37;;;12.20;;
76194;SDS011;64964;48.694;21.206;2023-03-03T09:22:55;21.85;;;13.95;;
76194;SDS011;64964;48.694;21.206;2023-03-03T09:25:31;25.27;;;14.73;;
76194;SDS011;64964;48.694;21.206;2023-03-03T09:28:00;25.95;;;15.07;;
76194;SDS011;64964;48.694;21.206;2023-03-03T09:30:37;23.15;;;14.43;;
76194;SDS011;64964;48.694;21.206;2023-03-03T09:33:21;24.00;;;13.35;;
76194;SDS011;64964;48.694;21.206;2023-03-03T09:36:22;25.90;;;14.73;;
76194;SDS011;64964;48.694;21.206;2023-03-03T09:38:50;25.23;;;14.93;;
76194;SDS011;64964;48.694;21.206;2023-03-03T09:58:00;24.33;;;13.57;;
76194;SDS011;64964;48.694;21.206;2023-03-03T10:05:57;26.23;;;14.60;;
76194;SDS011;64964;48.694;21.206;2023-03-03T10:08:36;24.52;;;13.65;;
76194;SDS011;64964;48.694;21.206;2023-03-03T10:13:54;24.70;;;13.82;;
76194;SDS011;64964;48.694;21.206;2023-03-03T10:16:32;22.92;;;12.95;;
76194;SDS011;64964;48.694;21.206;2023-03-03T10:19:06;24.57;;;13.90;;
76194;SDS011;64964;48.694;21.206;2023-03-03T10:24:28;22.95;;;12.45;;
76194;SDS011;64964;48.694;21.206;2023-03-03T10:33:28;23.53;;;13.03;;
76194;SDS011;64964;48.694;21.206;2023-03-03T10:36:08;24.48;;;13.13;;
76194;SDS011;64964;48.694;21.206;2023-03-03T10:53:06;22.08;;;13.57;;
76194;SDS011;64964;48.694;21.206;2023-03-03T10:55:53;22.83;;;14.18;;
76194;SDS011;64964;48.694;21.206;2023-03-03T11:01:11;25.35;;;14.27;;
76194;SDS011;64964;48.694;21.206;2023-03-03T11:04:14;24.53;;;13.97;;
76194;SDS011;64964;48.694;21.206;2023-03-03T11:07:12;20.55;;;12.95;;
76194;SDS011;64964;48.694;21.206;2023-03-03T11:10:10;21.80;;;13.25;;
76194;SDS011;64964;48.694;21.206;2023-03-03T11:12:51;23.08;;;13.25;;
76194;SDS011;64964;48.694;21.206;2023-03-03T11:21:14;22.17;;;13.90;;
76194;SDS011;64964;48.694;21.206;2023-03-03T11:39:45;21.80;;;14.33;;
76194;SDS011;64964;48.694;21.206;2023-03-03T11:44:49;22.60;;;14.45;;
76194;SDS011;64964;48.694;21.206;2023-03-03T11:49:53;25.48;;;14.55;;
76194;SDS011;64964;48.694;21.206;2023-03-03T11:52:35;25.00;;;14.87;;
76194;SDS011;64964;48.694;21.206;2023-03-03T11:55:14;23.53;;;13.77;;
76194;SDS011;64964;48.694;21.206;2023-03-03T11:57:49;24.52;;;13.90;;
76194;SDS011;64964;48.694;21.206;2023-03-03T12:00:40;26.48;;;14.02;;
76194;SDS011;64964;48.694;21.206;2023-03-03T12:21:31;25.77;;;13.13;;
76194;SDS011;64964;48.694;21.206;2023-03-03T12:32:30;27.15;;;13.07;;
76194;SDS011;64964;48.694;21.206;2023-03-03T12:35:17;25.80;;;14.82;;
76194;SDS011;64964;48.694;21.206;2023-03-03T12:37:58;25.87;;;13.60;;
76194;SDS011;64964;48.694;21.206;2023-03-03T12:40:39;28.45;;;14.23;;
76194;SDS011;64964;48.694;21.206;2023-03-03T12:43:27;22.23;;;12.80;;
76194;SDS011;64964;48.694;21.206;2023-03-03T12:46:06;27.88;;;13.73;;
76194;SDS011;64964;48.694;21.206;2023-03-03T12:51:17;29.77;;;15.20;;
76194;SDS011;64964;48.694;21.206;2023-03-03T12:59:15;29.70;;;15.27;;
76194;SDS011;64964;48.694;21.206;2023-03-03T13:13:00;28.05;;;14.35;;
76194;SDS011;64964;48.694;21.206;2023-03-03T13:15:34;33.58;;;14.10;;
76194;SDS011;64964;48.694;21.206;2023-03-03T13:20:59;27.55;;;13.88;;
76194;SDS011;64964;48.694;21.206;2023-03-03T13:26:25;26.58;;;13.27;;
76194;SDS011;64964;48.694;21.206;2023-03-03T13:28:57;24.35;;;13.02;;
76194;SDS011;64964;48.694;21.206;2023-03-03T13:31:26;27.67;;;13.50;;
76194;SDS011;64964;48.694;21.206;2023-03-03T13:33:57;23.88;;;13.68;;
76194;SDS011;64964;48.694;21.206;2023-03-03T13:36:37;26.77;;;12.80;;
76194;SDS011;64964;48.694;21.206;2023-03-03T13:39:21;24.65;;;13.43;;
76194;SDS011;64964;48.694;21.206;2023-03-03T13:44:42;25.63;;;12.80;;
76194;SDS011;64964;48.694;21.206;2023-03-03T13:55:35;24.05;;;13.38;;
76194;SDS011;64964;48.694;21.206;2023-03-03T13:58:29;27.90;;;13.33;;
76194;SDS011;64964;48.694;21.206;2023-03-03T14:01:13;24.77;;;13.25;;
76194;SDS011;64964;48.694;21.206;2023-03-03T14:06:23;26.42;;;12.75;;
76194;SDS011;64964;48.694;21.206;2023-03-03T14:09:06;26.08;;;13.40;;
76194;SDS011;64964;48.694;21.206;2023-03-03T14:11:44;24.47;;;13.83;;
76194;SDS011;64964;48.694;21.206;2023-03-03T14:17:27;28.48;;;14.65;;
76194;SDS011;64964;48.694;21.206;2023-03-03T14:22:44;28.48;;;14.85;;
76194;SDS011;64964;48.694;21.206;2023-03-03T14:25:15;31.90;;;16.40;;
76194;SDS011;64964;48.694;21.206;2023-03-03T14:33:04;30.60;;;15.57;;
76194;SDS011;64964;48.694;21.206;2023-03-03T14:38:15;31.00;;;15.68;;
76194;SDS011;64964;48.694;21.206;2023-03-03T14:40:41;31.10;;;15.68;;
76194;SDS011;64964;48.694;21.206;2023-03-03T14:45:50;30.00;;;15.52;;
76194;SDS011;64964;48.694;21.206;2023-03-03T14:48:20;27.57;;;14.53;;
76194;SDS011;64964;48.694;21.206;2023-03-03T14:50:56;27.30;;;14.57;;
76194;SDS011;64964;48.694;21.206;2023-03-03T14:56:13;33.50;;;14.77;;
76194;SDS011;64964;48.694;21.206;2023-03-03T14:58:46;31.40;;;14.77;;
76194;SDS011;64964;48.694;21.206;2023-03-03T15:04:02;29.52;;;14.32;;
76194;SDS011;64964;48.694;21.206;2023-03-03T15:12:18;28.00;;;13.68;;
76194;SDS011;64964;48.694;21.206;2023-03-03T15:14:46;30.37;;;14.57;;
76194;SDS011;64964;48.694;21.206;2023-03-03T15:17:24;28.63;;;13.90;;
76194;SDS011;64964;48.694;21.206;2023-03-03T15:25:42;31.30;;;13.27;;
76194;SDS011;64964;48.694;21.206;2023-03-03T15:30:58;24.55;;;12.85;;
76194;SDS011;64964;48.694;21.206;2023-03-03T15:36:16;24.98;;;12.98;;
76194;SDS011;64964;48.694;21.206;2023-03-03T15:39:15;26.63;;;12.52;;
76194;SDS011;64964;48.694;21.206;2023-03-03T15:42:09;25.17;;;12.50;;
76194;SDS011;64964;48.694;21.206;2023-03-03T15:44:50;27.15;;;12.75;;
76194;SDS011;64964;48.694;21.206;2023-03-03T15:55:51;28.33;;;13.17;;
76194;SDS011;64964;48.694;21.206;2023-03-03T16:03:53;27.65;;;14.25;;
76194;SDS011;64964;48.694;21.206;2023-03-03T16:12:12;27.40;;;13.05;;
76194;SDS011;64964;48.694;21.206;2023-03-03T16:20:20;31.27;;;14.30;;
76194;SDS011;64964;48.694;21.206;2023-03-03T16:34:06;28.23;;;13.88;;
76194;SDS011;64964;48.694;21.206;2023-03-03T16:36:54;30.53;;;14.33;;
76194;SDS011;64964;48.694;21.206;2023-03-03T16:55:31;28.38;;;14.27;;
76194;SDS011;64964;48.694;21.206;2023-03-03T17:01:07;30.10;;;13.43;;
76194;SDS011;64964;48.694;21.206;2023-03-03T17:03:51;31.37;;;13.07;;
76194;SDS011;64964;48.694;21.206;2023-03-03T17:06:43;31.27;;;13.05;;
76194;SDS011;64964;48.694;21.206;2023-03-03T17:11:57;27.50;;;13.57;;
76194;SDS011;64964;48.694;21.206;2023-03-03T17:15:17;29.38;;;12.88;;
76194;SDS011;64964;48.694;21.206;2023-03-03T17:18:15;32.33;;;13.37;;
76194;SDS011;64964;48.694;21.206;2023-03-03T17:21:00;29.40;;;13.48;;
76194;SDS011;64964;48.694;21.206;2023-03-03T17:34:43;26.73;;;12.15;;
76194;SDS011;64964;48.694;21.206;2023-03-03T17:42:18;27.88;;;12.68;;
76194;SDS011;64964;48.694;21.206;2023-03-03T17:47:23;29.23;;;14.00;;
76194;SDS011;64964;48.694;21.206;2023-03-03T17:53:51;29.30;;;12.50;;
76194;SDS011;64964;48.694;21.206;2023-03-03T17:56:28;26.98;;;12.45;;
76194;SDS011;64964;48.694;21.206;2023-03-03T18:07:08;29.45;;;13.40;;
76194;SDS011;64964;48.694;21.206;2023-03-03T18:09:59;27.15;;;12.65;;
76194;SDS011;64964;48.694;21.206;2023-03-03T18:21:30;35.45;;;15.40;;
76194;SDS011;64964;48.694;21.206;2023-03-03T18:26:48;37.33;;;15.25;;
76194;SDS011;64964;48.694;21.206;2023-03-03T18:39:46;38.22;;;16.08;;
76194;SDS011;64964;48.694;21.206;2023-03-03T18:44:41;38.85;;;16.23;;
76194;SDS011;64964;48.694;21.206;2023-03-03T18:47:08;34.40;;;15.85;;
76194;SDS011;64964;48.694;21.206;2023-03-03T18:49:48;37.83;;;17.00;;
76194;SDS011;64964;48.694;21.206;2023-03-03T18:52:29;34.83;;;15.68;;
76194;SDS011;64964;48.694;21.206;2023-03-03T18:57:26;36.75;;;17.15;;
76194;SDS011;64964;48.694;21.206;2023-03-03T18:59:53;37.35;;;16.25;;
76194;SDS011;64964;48.694;21.206;2023-03-03T19:02:37;39.97;;;17.15;;
76194;SDS011;64964;48.694;21.206;2023-03-03T19:10:07;43.87;;;18.23;;
76194;SDS011;64964;48.694;21.206;2023-03-03T19:16:06;37.60;;;16.80;;
76194;SDS011;64964;48.694;21.206;2023-03-03T19:23:52;43.57;;;18.50;;
76194;SDS011;64964;48.694;21.206;2023-03-03T19:29:40;44.60;;;19.00;;
76194;SDS011;64964;48.694;21.206;2023-03-03T19:31:46;41.97;;;18.35;;
76194;SDS011;64964;48.694;21.206;2023-03-03T19:40:24;46.50;;;19.42;;
76194;SDS011;64964;48.694;21.206;2023-03-03T19:45:30;46.47;;;19.52;;
76194;SDS011;64964;48.694;21.206;2023-03-03T19:48:37;42.05;;;19.13;;
76194;SDS011;64964;48.694;21.206;2023-03-03T19:51:13;46.17;;;19.57;;
76194;SDS011;64964;48.694;21.206;2023-03-03T19:53:53;49.03;;;19.02;;
76194;SDS011;64964;48.694;21.206;2023-03-03T19:56:40;48.28;;;20.48;;
76194;SDS011;64964;48.694;21.206;2023-03-03T20:04:59;47.97;;;20.00;;
76194;SDS011;64964;48.694;21.206;2023-03-03T20:07:31;47.67;;;19.52;;
76194;SDS011;64964;48.694;21.206;2023-03-03T20:12:51;42.45;;;18.80;;
76194;SDS011;64964;48.694;21.206;2023-03-03T20:23:53;47.17;;;20.33;;
76194;SDS011;64964;48.694;21.206;2023-03-03T20:26:48;44.50;;;20.70;;
76194;SDS011;64964;48.694;21.206;2023-03-03T20:29:46;50.33;;;20.10;;
76194;SDS011;64964;48.694;21.206;2023-03-03T20:41:09;52.10;;;21.23;;
76194;SDS011;64964;48.694;21.206;2023-03-03T20:44:21;67.60;;;26.83;;
76194;SDS011;64964;48.694;21.206;2023-03-03T20:47:00;134.77;;;40.83;;
76194;SDS011;64964;48.694;21.206;2023-03-03T20:57:54;49.65;;;22.35;;
76194;SDS011;64964;48.694;21.206;2023-03-03T21:00:36;48.77;;;21.67;;
76194;SDS011;64964;48.694;21.206;2023-03-03T21:06:04;53.55;;;21.65;;
76194;SDS011;64964;48.694;21.206;2023-03-03T21:11:19;86.75;;;37.78;;
76194;SDS011;64964;48.694;21.206;2023-03-03T21:13:54;57.47;;;25.17;;
76194;SDS011;64964;48.694;21.206;2023-03-03T21:18:54;58.10;;;24.30;;
76194;SDS011;64964;48.694;21.206;2023-03-03T21:21:28;49.92;;;22.35;;
76194;SDS011;64964;48.694;21.206;2023-03-03T21:23:56;54.43;;;22.20;;
76194;SDS011;64964;48.694;21.206;2023-03-03T21:29:14;52.67;;;22.15;;
76194;SDS011;64964;48.694;21.206;2023-03-03T21:32:32;51.28;;;22.23;;
76194;SDS011;64964;48.694;21.206;2023-03-03T21:34:31;49.05;;;20.77;;